sensor_id;sensor_type;location;lat;lon;timestamp;temperature;humidity
65470;DHT22;52067;50.710;14.492;2023-04-30T00:01:23;10.10;85.82
65470;DHT22;52067;50.710;14.492;2023-04-30T00:03:49;10.03;85.98
65470;DHT22;52067;50.710;14.492;2023-04-30T00:06:14;10.04;86.27
65470;DHT22;52067;50.710;14.492;2023-04-30T00:08:40;10.01;86.16
65470;DHT22;52067;50.710;14.492;2023-04-30T00:11:05;10.03;86.04
65470;DHT22;52067;50.710;14.492;2023-04-30T00:13:31;9.90;86.30
65470;DHT22;52067;50.710;14.492;2023-04-30T00:15:56;9.80;86.55
65470;DHT22;52067;50.710;14.492;2023-04-30T00:18:21;9.83;86.66
65470;DHT22;52067;50.710;14.492;2023-04-30T00:20:47;9.82;86.59
65470;DHT22;52067;50.710;14.492;2023-04-30T00:23:12;9.82;86.51
65470;DHT22;52067;50.710;14.492;2023-04-30T00:25:37;9.77;86.72
65470;DHT22;52067;50.710;14.492;2023-04-30T00:28:03;9.69;87.01
65470;DHT22;52067;50.710;14.492;2023-04-30T00:30:28;9.62;87.28
65470;DHT22;52067;50.710;14.492;2023-04-30T00:32:54;9.60;87.23
65470;DHT22;52067;50.710;14.492;2023-04-30T00:35:19;9.57;87.28
65470;DHT22;52067;50.710;14.492;2023-04-30T00:37:45;9.53;87.38
65470;DHT22;52067;50.710;14.492;2023-04-30T00:40:10;9.45;87.52
65470;DHT22;52067;50.710;14.492;2023-04-30T00:42:36;9.45;87.59
65470;DHT22;52067;50.710;14.492;2023-04-30T00:45:01;9.46;87.60
65470;DHT22;52067;50.710;14.492;2023-04-30T00:47:27;9.39;87.73
65470;DHT22;52067;50.710;14.492;2023-04-30T00:49:52;9.34;87.70
65470;DHT22;52067;50.710;14.492;2023-04-30T00:52:18;9.26;87.97
65470;DHT22;52067;50.710;14.492;2023-04-30T00:54:43;9.36;87.93
65470;DHT22;52067;50.710;14.492;2023-04-30T00:57:11;9.34;87.72
65470;DHT22;52067;50.710;14.492;2023-04-30T00:59:37;9.36;87.70
65470;DHT22;52067;50.710;14.492;2023-04-30T01:02:03;9.38;87.65
65470;DHT22;52067;50.710;14.492;2023-04-30T01:04:28;9.43;87.58
65470;DHT22;52067;50.710;14.492;2023-04-30T01:06:54;9.39;87.75
65470;DHT22;52067;50.710;14.492;2023-04-30T01:09:20;9.49;87.40
65470;DHT22;52067;50.710;14.492;2023-04-30T01:11:59;9.52;87.30
65470;DHT22;52067;50.710;14.492;2023-04-30T01:14:31;9.63;87.00
65470;DHT22;52067;50.710;14.492;2023-04-30T01:17:05;9.64;86.68
65470;DHT22;52067;50.710;14.492;2023-04-30T01:19:43;9.66;86.73
65470;DHT22;52067;50.710;14.492;2023-04-30T01:22:42;9.55;87.81
65470;DHT22;52067;50.710;14.492;2023-04-30T01:25:24;9.69;86.77
65470;DHT22;52067;50.710;14.492;2023-04-30T01:30:30;9.64;86.84
65470;DHT22;52067;50.710;14.492;2023-04-30T01:32:56;9.66;86.67
65470;DHT22;52067;50.710;14.492;2023-04-30T01:35:52;9.67;86.56
65470;DHT22;52067;50.710;14.492;2023-04-30T01:41:04;9.66;87.01
65470;DHT22;52067;50.710;14.492;2023-04-30T01:46:24;9.64;86.38
65470;DHT22;52067;50.710;14.492;2023-04-30T01:51:43;9.66;86.43
65470;DHT22;52067;50.710;14.492;2023-04-30T01:54:37;9.72;86.25
65470;DHT22;52067;50.710;14.492;2023-04-30T01:57:17;9.74;86.02
65470;DHT22;52067;50.710;14.492;2023-04-30T01:59:45;9.83;85.60
65470;DHT22;52067;50.710;14.492;2023-04-30T02:02:10;9.80;85.68
65470;DHT22;52067;50.710;14.492;2023-04-30T02:04:36;9.73;85.77
65470;DHT22;52067;50.710;14.492;2023-04-30T02:07:01;9.73;85.80
65470;DHT22;52067;50.710;14.492;2023-04-30T02:09:27;9.73;85.97
65470;DHT22;52067;50.710;14.492;2023-04-30T02:11:52;9.70;85.82
65470;DHT22;52067;50.710;14.492;2023-04-30T02:14:17;9.64;86.25
65470;DHT22;52067;50.710;14.492;2023-04-30T02:16:43;9.52;87.11
65470;DHT22;52067;50.710;14.492;2023-04-30T02:19:08;9.69;86.24
65470;DHT22;52067;50.710;14.492;2023-04-30T02:21:33;9.53;87.23
65470;DHT22;52067;50.710;14.492;2023-04-30T02:23:59;9.59;86.39
65470;DHT22;52067;50.710;14.492;2023-04-30T02:26:24;9.59;86.37
65470;DHT22;52067;50.710;14.492;2023-04-30T02:28:50;9.69;86.19
65470;DHT22;52067;50.710;14.492;2023-04-30T02:31:16;9.69;85.81
65470;DHT22;52067;50.710;14.492;2023-04-30T02:33:41;9.69;85.96
65470;DHT22;52067;50.710;14.492;2023-04-30T02:36:07;9.73;85.96
65470;DHT22;52067;50.710;14.492;2023-04-30T02:38:32;9.72;85.59
65470;DHT22;52067;50.710;14.492;2023-04-30T02:40:57;9.66;85.40
65470;DHT22;52067;50.710;14.492;2023-04-30T02:43:23;9.66;85.77
65470;DHT22;52067;50.710;14.492;2023-04-30T02:45:48;9.64;85.54
65470;DHT22;52067;50.710;14.492;2023-04-30T02:48:14;9.67;85.51
65470;DHT22;52067;50.710;14.492;2023-04-30T02:50:39;9.66;85.63
65470;DHT22;52067;50.710;14.492;2023-04-30T02:53:05;9.55;86.05
65470;DHT22;52067;50.710;14.492;2023-04-30T02:55:30;9.50;85.88
65470;DHT22;52067;50.710;14.492;2023-04-30T02:57:56;9.55;85.76
65470;DHT22;52067;50.710;14.492;2023-04-30T03:00:22;9.53;85.85
65470;DHT22;52067;50.710;14.492;2023-04-30T03:02:47;9.45;85.69
65470;DHT22;52067;50.710;14.492;2023-04-30T03:05:13;9.35;85.77
65470;DHT22;52067;50.710;14.492;2023-04-30T03:07:40;9.31;86.04
65470;DHT22;52067;50.710;14.492;2023-04-30T03:10:06;9.29;85.89
65470;DHT22;52067;50.710;14.492;2023-04-30T03:12:31;9.16;86.24
65470;DHT22;52067;50.710;14.492;2023-04-30T03:14:57;9.05;86.37
65470;DHT22;52067;50.710;14.492;2023-04-30T03:17:22;9.04;86.62
65470;DHT22;52067;50.710;14.492;2023-04-30T03:19:49;8.92;86.70
65470;DHT22;52067;50.710;14.492;2023-04-30T03:22:14;8.84;86.95
65470;DHT22;52067;50.710;14.492;2023-04-30T03:24:40;8.85;86.96
65470;DHT22;52067;50.710;14.492;2023-04-30T03:27:05;8.71;87.08
65470;DHT22;52067;50.710;14.492;2023-04-30T03:29:31;8.70;87.34
65470;DHT22;52067;50.710;14.492;2023-04-30T03:31:56;8.49;87.47
65470;DHT22;52067;50.710;14.492;2023-04-30T03:34:21;8.49;87.96
65470;DHT22;52067;50.710;14.492;2023-04-30T03:36:47;8.49;87.96
65470;DHT22;52067;50.710;14.492;2023-04-30T03:39:14;8.53;87.81
65470;DHT22;52067;50.710;14.492;2023-04-30T03:41:40;8.45;87.80
65470;DHT22;52067;50.710;14.492;2023-04-30T03:44:05;8.42;88.05
65470;DHT22;52067;50.710;14.492;2023-04-30T03:46:31;8.46;88.01
65470;DHT22;52067;50.710;14.492;2023-04-30T03:48:56;8.47;88.28
65470;DHT22;52067;50.710;14.492;2023-04-30T03:51:21;8.50;88.27
65470;DHT22;52067;50.710;14.492;2023-04-30T03:53:47;8.49;87.97
65470;DHT22;52067;50.710;14.492;2023-04-30T03:56:13;8.59;87.83
65470;DHT22;52067;50.710;14.492;2023-04-30T03:58:38;8.66;87.74
65470;DHT22;52067;50.710;14.492;2023-04-30T04:01:04;8.81;87.13
65470;DHT22;52067;50.710;14.492;2023-04-30T04:03:29;8.84;86.87
65470;DHT22;52067;50.710;14.492;2023-04-30T04:05:55;8.87;86.63
65470;DHT22;52067;50.710;14.492;2023-04-30T04:08:21;9.03;86.05
65470;DHT22;52067;50.710;14.492;2023-04-30T04:10:46;9.04;86.18
65470;DHT22;52067;50.710;14.492;2023-04-30T04:13:11;9.01;85.73
65470;DHT22;52067;50.710;14.492;2023-04-30T04:15:37;9.14;85.78
65470;DHT22;52067;50.710;14.492;2023-04-30T04:18:02;9.14;84.90
65470;DHT22;52067;50.710;14.492;2023-04-30T04:20:28;8.97;84.98
65470;DHT22;52067;50.710;14.492;2023-04-30T04:22:54;8.91;85.23
65470;DHT22;52067;50.710;14.492;2023-04-30T04:25:20;8.92;85.15
65470;DHT22;52067;50.710;14.492;2023-04-30T04:27:49;9.03;85.10
65470;DHT22;52067;50.710;14.492;2023-04-30T04:30:14;9.11;84.85
65470;DHT22;52067;50.710;14.492;2023-04-30T04:32:39;9.07;84.61
65470;DHT22;52067;50.710;14.492;2023-04-30T04:35:13;9.11;84.25
65470;DHT22;52067;50.710;14.492;2023-04-30T04:37:39;9.18;84.10
65470;DHT22;52067;50.710;14.492;2023-04-30T04:40:05;9.10;84.36
65470;DHT22;52067;50.710;14.492;2023-04-30T04:42:31;9.08;83.40
65470;DHT22;52067;50.710;14.492;2023-04-30T04:44:57;8.91;83.53
65470;DHT22;52067;50.710;14.492;2023-04-30T04:47:22;8.89;83.31
65470;DHT22;52067;50.710;14.492;2023-04-30T04:49:47;8.98;83.44
65470;DHT22;52067;50.710;14.492;2023-04-30T04:52:13;8.91;83.22
65470;DHT22;52067;50.710;14.492;2023-04-30T04:54:38;8.91;83.20
65470;DHT22;52067;50.710;14.492;2023-04-30T04:57:03;8.89;83.18
65470;DHT22;52067;50.710;14.492;2023-04-30T04:59:29;8.76;83.02
65470;DHT22;52067;50.710;14.492;2023-04-30T05:01:54;8.85;83.28
65470;DHT22;52067;50.710;14.492;2023-04-30T05:04:20;8.83;83.98
65470;DHT22;52067;50.710;14.492;2023-04-30T05:06:46;9.05;83.20
65470;DHT22;52067;50.710;14.492;2023-04-30T05:09:11;9.18;82.23
65470;DHT22;52067;50.710;14.492;2023-04-30T05:11:37;9.16;82.32
65470;DHT22;52067;50.710;14.492;2023-04-30T05:14:02;9.21;82.70
65470;DHT22;52067;50.710;14.492;2023-04-30T05:16:28;9.42;82.06
65470;DHT22;52067;50.710;14.492;2023-04-30T05:18:53;9.46;82.09
65470;DHT22;52067;50.710;14.492;2023-04-30T05:21:18;9.53;81.50
65470;DHT22;52067;50.710;14.492;2023-04-30T05:23:44;9.47;83.95
65470;DHT22;52067;50.710;14.492;2023-04-30T05:26:09;9.76;81.07
65470;DHT22;52067;50.710;14.492;2023-04-30T05:28:35;9.77;81.12
65470;DHT22;52067;50.710;14.492;2023-04-30T05:31:00;9.57;80.90
65470;DHT22;52067;50.710;14.492;2023-04-30T05:33:26;9.76;81.42
65470;DHT22;52067;50.710;14.492;2023-04-30T05:35:51;9.57;81.05
65470;DHT22;52067;50.710;14.492;2023-04-30T05:38:16;9.56;80.84
65470;DHT22;52067;50.710;14.492;2023-04-30T05:40:42;9.36;82.18
65470;DHT22;52067;50.710;14.492;2023-04-30T05:43:07;9.40;81.64
65470;DHT22;52067;50.710;14.492;2023-04-30T05:45:33;9.50;82.04
65470;DHT22;52067;50.710;14.492;2023-04-30T05:47:58;9.55;81.59
65470;DHT22;52067;50.710;14.492;2023-04-30T05:50:23;9.69;81.64
65470;DHT22;52067;50.710;14.492;2023-04-30T05:52:49;9.67;81.41
65470;DHT22;52067;50.710;14.492;2023-04-30T05:55:14;9.70;81.25
65470;DHT22;52067;50.710;14.492;2023-04-30T05:57:40;9.49;82.82
65470;DHT22;52067;50.710;14.492;2023-04-30T06:00:06;9.72;81.22
65470;DHT22;52067;50.710;14.492;2023-04-30T06:02:31;9.83;80.09
65470;DHT22;52067;50.710;14.492;2023-04-30T06:04:57;9.74;80.78
65470;DHT22;52067;50.710;14.492;2023-04-30T06:07:22;9.97;80.05
65470;DHT22;52067;50.710;14.492;2023-04-30T06:09:47;9.83;79.91
65470;DHT22;52067;50.710;14.492;2023-04-30T06:12:14;9.97;79.75
65470;DHT22;52067;50.710;14.492;2023-04-30T06:14:40;10.14;79.51
65470;DHT22;52067;50.710;14.492;2023-04-30T06:17:09;9.87;79.02
65470;DHT22;52067;50.710;14.492;2023-04-30T06:19:34;9.77;79.29
65470;DHT22;52067;50.710;14.492;2023-04-30T06:22:00;9.47;82.69
65470;DHT22;52067;50.710;14.492;2023-04-30T06:24:25;9.77;81.55
65470;DHT22;52067;50.710;14.492;2023-04-30T06:26:51;10.01;79.78
65470;DHT22;52067;50.710;14.492;2023-04-30T06:29:17;9.94;78.55
65470;DHT22;52067;50.710;14.492;2023-04-30T06:31:42;9.80;77.87
65470;DHT22;52067;50.710;14.492;2023-04-30T06:34:07;9.84;78.87
65470;DHT22;52067;50.710;14.492;2023-04-30T06:36:33;9.82;81.39
65470;DHT22;52067;50.710;14.492;2023-04-30T06:38:58;10.11;77.86
65470;DHT22;52067;50.710;14.492;2023-04-30T06:41:24;9.97;81.75
65470;DHT22;52067;50.710;14.492;2023-04-30T06:43:49;10.48;77.36
65470;DHT22;52067;50.710;14.492;2023-04-30T06:46:15;9.94;77.99
65470;DHT22;52067;50.710;14.492;2023-04-30T06:48:40;10.37;76.73
65470;DHT22;52067;50.710;14.492;2023-04-30T06:51:06;10.42;75.63
65470;DHT22;52067;50.710;14.492;2023-04-30T06:53:31;10.17;75.60
65470;DHT22;52067;50.710;14.492;2023-04-30T06:55:56;10.10;75.66
65470;DHT22;52067;50.710;14.492;2023-04-30T06:58:22;10.12;77.11
65470;DHT22;52067;50.710;14.492;2023-04-30T07:00:48;10.10;77.81
65470;DHT22;52067;50.710;14.492;2023-04-30T07:03:13;9.83;79.27
65470;DHT22;52067;50.710;14.492;2023-04-30T07:05:38;10.14;77.34
65470;DHT22;52067;50.710;14.492;2023-04-30T07:08:05;10.17;80.81
65470;DHT22;52067;50.710;14.492;2023-04-30T07:10:31;10.63;76.12
65470;DHT22;52067;50.710;14.492;2023-04-30T07:12:56;10.56;75.10
65470;DHT22;52067;50.710;14.492;2023-04-30T07:15:22;10.61;75.14
65470;DHT22;52067;50.710;14.492;2023-04-30T07:17:48;10.44;74.06
65470;DHT22;52067;50.710;14.492;2023-04-30T07:20:13;10.56;75.10
65470;DHT22;52067;50.710;14.492;2023-04-30T07:22:39;10.55;73.59
65470;DHT22;52067;50.710;14.492;2023-04-30T07:25:08;10.49;74.71
65470;DHT22;52067;50.710;14.492;2023-04-30T07:27:33;10.52;75.15
65470;DHT22;52067;50.710;14.492;2023-04-30T07:29:59;10.90;75.35
65470;DHT22;52067;50.710;14.492;2023-04-30T07:32:24;10.84;73.88
65470;DHT22;52067;50.710;14.492;2023-04-30T07:34:52;10.88;71.27
65470;DHT22;52067;50.710;14.492;2023-04-30T07:37:18;10.83;72.46
65470;DHT22;52067;50.710;14.492;2023-04-30T07:39:43;10.61;73.56
65470;DHT22;52067;50.710;14.492;2023-04-30T07:42:09;10.72;76.02
65470;DHT22;52067;50.710;14.492;2023-04-30T07:44:34;10.80;71.90
65470;DHT22;52067;50.710;14.492;2023-04-30T07:47:00;11.10;71.67
65470;DHT22;52067;50.710;14.492;2023-04-30T07:49:25;11.42;70.27
65470;DHT22;52067;50.710;14.492;2023-04-30T07:51:50;11.52;69.65
65470;DHT22;52067;50.710;14.492;2023-04-30T07:54:16;11.82;69.27
65470;DHT22;52067;50.710;14.492;2023-04-30T07:56:41;11.92;66.77
65470;DHT22;52067;50.710;14.492;2023-04-30T07:59:07;11.51;67.55
65470;DHT22;52067;50.710;14.492;2023-04-30T08:01:32;11.30;67.26
65470;DHT22;52067;50.710;14.492;2023-04-30T08:03:57;11.35;67.76
65470;DHT22;52067;50.710;14.492;2023-04-30T08:06:23;10.77;69.59
65470;DHT22;52067;50.710;14.492;2023-04-30T08:08:49;11.17;70.86
65470;DHT22;52067;50.710;14.492;2023-04-30T08:11:14;11.21;68.40
65470;DHT22;52067;50.710;14.492;2023-04-30T08:13:40;11.34;68.52
65470;DHT22;52067;50.710;14.492;2023-04-30T08:16:06;11.32;67.88
65470;DHT22;52067;50.710;14.492;2023-04-30T08:18:31;11.26;67.78
65470;DHT22;52067;50.710;14.492;2023-04-30T08:20:57;11.44;66.18
65470;DHT22;52067;50.710;14.492;2023-04-30T08:23:23;11.42;66.94
65470;DHT22;52067;50.710;14.492;2023-04-30T08:25:49;11.74;68.41
65470;DHT22;52067;50.710;14.492;2023-04-30T08:28:14;11.83;65.83
65470;DHT22;52067;50.710;14.492;2023-04-30T08:30:40;12.41;62.48
65470;DHT22;52067;50.710;14.492;2023-04-30T08:33:05;12.58;64.72
65470;DHT22;52067;50.710;14.492;2023-04-30T08:35:30;12.13;62.70
65470;DHT22;52067;50.710;14.492;2023-04-30T08:37:56;11.06;70.25
65470;DHT22;52067;50.710;14.492;2023-04-30T08:40:21;11.21;63.72
65470;DHT22;52067;50.710;14.492;2023-04-30T08:42:59;10.99;64.74
65470;DHT22;52067;50.710;14.492;2023-04-30T08:45:27;11.16;64.12
65470;DHT22;52067;50.710;14.492;2023-04-30T08:47:52;11.57;63.42
65470;DHT22;52067;50.710;14.492;2023-04-30T08:50:20;11.59;63.50
65470;DHT22;52067;50.710;14.492;2023-04-30T08:52:45;11.71;61.90
65470;DHT22;52067;50.710;14.492;2023-04-30T08:55:10;11.88;61.22
65470;DHT22;52067;50.710;14.492;2023-04-30T08:57:36;11.99;61.00
65470;DHT22;52067;50.710;14.492;2023-04-30T09:00:03;11.72;62.52
65470;DHT22;52067;50.710;14.492;2023-04-30T09:02:31;11.82;63.58
65470;DHT22;52067;50.710;14.492;2023-04-30T09:04:57;12.00;62.65
65470;DHT22;52067;50.710;14.492;2023-04-30T09:07:23;11.81;62.01
65470;DHT22;52067;50.710;14.492;2023-04-30T09:09:52;11.69;65.38
65470;DHT22;52067;50.710;14.492;2023-04-30T09:12:18;11.75;61.16
65470;DHT22;52067;50.710;14.492;2023-04-30T09:15:00;11.92;62.65
65470;DHT22;52067;50.710;14.492;2023-04-30T09:17:26;12.19;60.88
65470;DHT22;52067;50.710;14.492;2023-04-30T09:19:52;12.44;61.32
65470;DHT22;52067;50.710;14.492;2023-04-30T09:22:19;12.68;59.72
65470;DHT22;52067;50.710;14.492;2023-04-30T09:24:46;12.81;62.65
65470;DHT22;52067;50.710;14.492;2023-04-30T09:27:20;12.53;59.65
65470;DHT22;52067;50.710;14.492;2023-04-30T09:29:46;11.89;62.88
65470;DHT22;52067;50.710;14.492;2023-04-30T09:32:12;12.29;61.92
65470;DHT22;52067;50.710;14.492;2023-04-30T09:34:39;12.71;60.92
65470;DHT22;52067;50.710;14.492;2023-04-30T09:37:05;12.92;63.64
65470;DHT22;52067;50.710;14.492;2023-04-30T09:39:31;13.20;60.69
65470;DHT22;52067;50.710;14.492;2023-04-30T09:42:07;13.14;57.30
65470;DHT22;52067;50.710;14.492;2023-04-30T09:44:37;13.22;56.72
65470;DHT22;52067;50.710;14.492;2023-04-30T09:47:03;13.36;58.08
65470;DHT22;52067;50.710;14.492;2023-04-30T09:49:29;13.70;57.78
65470;DHT22;52067;50.710;14.492;2023-04-30T09:52:00;13.44;62.01
65470;DHT22;52067;50.710;14.492;2023-04-30T09:54:30;13.63;57.70
65470;DHT22;52067;50.710;14.492;2023-04-30T09:56:58;13.36;56.20
65470;DHT22;52067;50.710;14.492;2023-04-30T09:59:30;12.94;57.62
65470;DHT22;52067;50.710;14.492;2023-04-30T10:02:00;12.99;56.17
65470;DHT22;52067;50.710;14.492;2023-04-30T10:04:36;12.96;56.89
65470;DHT22;52067;50.710;14.492;2023-04-30T10:07:09;13.26;55.25
65470;DHT22;52067;50.710;14.492;2023-04-30T10:10:07;13.47;60.88
65470;DHT22;52067;50.710;14.492;2023-04-30T10:12:42;13.91;54.84
65470;DHT22;52067;50.710;14.492;2023-04-30T10:15:21;14.87;52.84
65470;DHT22;52067;50.710;14.492;2023-04-30T10:18:06;14.58;55.17
65470;DHT22;52067;50.710;14.492;2023-04-30T10:20:35;14.48;50.86
65470;DHT22;52067;50.710;14.492;2023-04-30T10:23:01;16.92;45.58
65470;DHT22;52067;50.710;14.492;2023-04-30T10:25:27;17.42;48.58
65470;DHT22;52067;50.710;14.492;2023-04-30T10:27:53;16.76;50.43
65470;DHT22;52067;50.710;14.492;2023-04-30T10:30:21;18.21;46.24
65470;DHT22;52067;50.710;14.492;2023-04-30T10:35:34;15.79;51.08
65470;DHT22;52067;50.710;14.492;2023-04-30T10:38:12;17.18;48.76
65470;DHT22;52067;50.710;14.492;2023-04-30T10:40:39;17.11;49.43
65470;DHT22;52067;50.710;14.492;2023-04-30T10:43:05;17.95;46.29
65470;DHT22;52067;50.710;14.492;2023-04-30T10:45:34;19.66;40.11
65470;DHT22;52067;50.710;14.492;2023-04-30T10:48:02;19.70;38.32
65470;DHT22;52067;50.710;14.492;2023-04-30T10:50:28;20.00;36.41
65470;DHT22;52067;50.710;14.492;2023-04-30T10:53:04;20.59;36.97
65470;DHT22;52067;50.710;14.492;2023-04-30T10:55:31;16.38;44.77
65470;DHT22;52067;50.710;14.492;2023-04-30T10:57:57;19.29;39.36
65470;DHT22;52067;50.710;14.492;2023-04-30T11:00:28;20.35;38.42
65470;DHT22;52067;50.710;14.492;2023-04-30T11:03:01;20.49;36.44
65470;DHT22;52067;50.710;14.492;2023-04-30T11:05:37;19.44;44.52
65470;DHT22;52067;50.710;14.492;2023-04-30T11:08:04;20.96;35.97
65470;DHT22;52067;50.710;14.492;2023-04-30T11:10:33;21.23;36.34
65470;DHT22;52067;50.710;14.492;2023-04-30T11:13:05;21.32;34.64
65470;DHT22;52067;50.710;14.492;2023-04-30T11:15:44;21.30;36.32
65470;DHT22;52067;50.710;14.492;2023-04-30T11:18:09;20.47;37.61
65470;DHT22;52067;50.710;14.492;2023-04-30T11:20:43;21.55;34.10
65470;DHT22;52067;50.710;14.492;2023-04-30T11:23:14;21.10;39.45
65470;DHT22;52067;50.710;14.492;2023-04-30T11:25:44;20.38;37.16
65470;DHT22;52067;50.710;14.492;2023-04-30T11:28:16;21.37;39.42
65470;DHT22;52067;50.710;14.492;2023-04-30T11:30:55;20.18;36.25
65470;DHT22;52067;50.710;14.492;2023-04-30T11:33:28;21.00;34.84
65470;DHT22;52067;50.710;14.492;2023-04-30T11:35:55;20.84;36.28
65470;DHT22;52067;50.710;14.492;2023-04-30T11:38:34;21.54;34.40
65470;DHT22;52067;50.710;14.492;2023-04-30T11:41:01;21.07;33.71
65470;DHT22;52067;50.710;14.492;2023-04-30T11:43:28;19.15;38.49
65470;DHT22;52067;50.710;14.492;2023-04-30T11:46:12;20.44;40.13
65470;DHT22;52067;50.710;14.492;2023-04-30T11:48:48;21.44;36.12
65470;DHT22;52067;50.710;14.492;2023-04-30T11:51:19;21.74;34.70
65470;DHT22;52067;50.710;14.492;2023-04-30T11:53:46;21.80;33.55
65470;DHT22;52067;50.710;14.492;2023-04-30T11:56:11;22.59;32.69
65470;DHT22;52067;50.710;14.492;2023-04-30T11:58:37;21.32;31.99
65470;DHT22;52067;50.710;14.492;2023-04-30T12:01:07;20.00;35.27
65470;DHT22;52067;50.710;14.492;2023-04-30T12:03:46;19.18;39.45
65470;DHT22;52067;50.710;14.492;2023-04-30T12:06:20;21.65;33.97
65470;DHT22;52067;50.710;14.492;2023-04-30T12:08:46;22.71;32.08
65470;DHT22;52067;50.710;14.492;2023-04-30T12:11:22;21.87;35.12
65470;DHT22;52067;50.710;14.492;2023-04-30T12:13:53;21.70;34.60
65470;DHT22;52067;50.710;14.492;2023-04-30T12:16:19;21.16;34.53
65470;DHT22;52067;50.710;14.492;2023-04-30T12:18:45;22.46;33.51
65470;DHT22;52067;50.710;14.492;2023-04-30T12:21:11;22.33;36.25
65470;DHT22;52067;50.710;14.492;2023-04-30T12:23:37;21.30;33.51
65470;DHT22;52067;50.710;14.492;2023-04-30T12:26:02;21.37;35.87
65470;DHT22;52067;50.710;14.492;2023-04-30T12:28:28;20.75;35.73
65470;DHT22;52067;50.710;14.492;2023-04-30T12:30:53;19.55;38.13
65470;DHT22;52067;50.710;14.492;2023-04-30T12:33:19;20.31;38.57
65470;DHT22;52067;50.710;14.492;2023-04-30T12:35:44;22.13;34.92
65470;DHT22;52067;50.710;14.492;2023-04-30T12:38:12;21.02;40.09
65470;DHT22;52067;50.710;14.492;2023-04-30T12:40:45;23.27;31.95
65470;DHT22;52067;50.710;14.492;2023-04-30T12:43:14;23.44;33.21
65470;DHT22;52067;50.710;14.492;2023-04-30T12:45:53;23.52;35.12
65470;DHT22;52067;50.710;14.492;2023-04-30T12:48:21;24.07;31.59
65470;DHT22;52067;50.710;14.492;2023-04-30T12:50:54;22.46;31.02
65470;DHT22;52067;50.710;14.492;2023-04-30T12:53:20;24.00;29.80
65470;DHT22;52067;50.710;14.492;2023-04-30T12:58:40;22.88;31.99
65470;DHT22;52067;50.710;14.492;2023-04-30T13:01:14;20.85;33.41
65470;DHT22;52067;50.710;14.492;2023-04-30T13:03:40;22.01;34.57
65470;DHT22;52067;50.710;14.492;2023-04-30T13:06:05;21.77;36.81
65470;DHT22;52067;50.710;14.492;2023-04-30T13:08:31;23.04;30.44
65470;DHT22;52067;50.710;14.492;2023-04-30T13:10:57;22.77;32.99
65470;DHT22;52067;50.710;14.492;2023-04-30T13:13:22;24.85;28.82
65470;DHT22;52067;50.710;14.492;2023-04-30T13:15:48;23.11;33.83
65470;DHT22;52067;50.710;14.492;2023-04-30T13:18:13;23.44;31.69
65470;DHT22;52067;50.710;14.492;2023-04-30T13:20:42;19.59;38.65
65470;DHT22;52067;50.710;14.492;2023-04-30T13:23:10;23.01;30.68
65470;DHT22;52067;50.710;14.492;2023-04-30T13:25:36;23.04;35.03
65470;DHT22;52067;50.710;14.492;2023-04-30T13:28:02;21.54;34.88
65470;DHT22;52067;50.710;14.492;2023-04-30T13:30:28;20.81;35.68
65470;DHT22;52067;50.710;14.492;2023-04-30T13:32:53;23.65;30.28
65470;DHT22;52067;50.710;14.492;2023-04-30T13:35:19;23.37;28.46
65470;DHT22;52067;50.710;14.492;2023-04-30T13:37:45;21.37;33.47
65470;DHT22;52067;50.710;14.492;2023-04-30T13:40:13;22.84;30.54
65470;DHT22;52067;50.710;14.492;2023-04-30T13:42:41;22.39;30.85
65470;DHT22;52067;50.710;14.492;2023-04-30T13:45:07;23.65;28.70
65470;DHT22;52067;50.710;14.492;2023-04-30T13:47:33;24.10;28.68
65470;DHT22;52067;50.710;14.492;2023-04-30T13:49:59;23.46;29.83
65470;DHT22;52067;50.710;14.492;2023-04-30T13:52:25;23.87;29.42
65470;DHT22;52067;50.710;14.492;2023-04-30T13:54:51;24.78;26.84
65470;DHT22;52067;50.710;14.492;2023-04-30T13:57:16;23.51;29.41
65470;DHT22;52067;50.710;14.492;2023-04-30T13:59:42;22.71;30.67
65470;DHT22;52067;50.710;14.492;2023-04-30T14:02:07;23.51;30.94
65470;DHT22;52067;50.710;14.492;2023-04-30T14:04:33;23.34;31.59
65470;DHT22;52067;50.710;14.492;2023-04-30T14:07:00;23.58;28.99
65470;DHT22;52067;50.710;14.492;2023-04-30T14:09:25;23.17;30.24
65470;DHT22;52067;50.710;14.492;2023-04-30T14:11:51;22.70;32.82
65470;DHT22;52067;50.710;14.492;2023-04-30T14:14:16;22.76;30.47
65470;DHT22;52067;50.710;14.492;2023-04-30T14:16:42;23.49;34.82
65470;DHT22;52067;50.710;14.492;2023-04-30T14:19:08;21.51;33.81
65470;DHT22;52067;50.710;14.492;2023-04-30T14:21:34;23.46;29.71
65470;DHT22;52067;50.710;14.492;2023-04-30T14:24:00;25.08;27.64
65470;DHT22;52067;50.710;14.492;2023-04-30T14:26:25;24.34;29.65
65470;DHT22;52067;50.710;14.492;2023-04-30T14:28:50;25.64;27.81
65470;DHT22;52067;50.710;14.492;2023-04-30T14:31:16;25.18;26.75
65470;DHT22;52067;50.710;14.492;2023-04-30T14:33:41;25.54;28.85
65470;DHT22;52067;50.710;14.492;2023-04-30T14:36:07;22.50;33.12
65470;DHT22;52067;50.710;14.492;2023-04-30T14:38:33;20.75;31.21
65470;DHT22;52067;50.710;14.492;2023-04-30T14:40:58;19.22;32.64
65470;DHT22;52067;50.710;14.492;2023-04-30T14:43:24;20.47;30.10
65470;DHT22;52067;50.710;14.492;2023-04-30T14:45:50;20.54;31.43
65470;DHT22;52067;50.710;14.492;2023-04-30T14:48:16;22.05;27.79
65470;DHT22;52067;50.710;14.492;2023-04-30T14:50:42;19.96;31.99
65470;DHT22;52067;50.710;14.492;2023-04-30T14:53:08;22.40;28.87
65470;DHT22;52067;50.710;14.492;2023-04-30T14:55:36;20.20;33.07
65470;DHT22;52067;50.710;14.492;2023-04-30T14:58:01;21.24;29.56
65470;DHT22;52067;50.710;14.492;2023-04-30T15:00:27;22.11;28.90
65470;DHT22;52067;50.710;14.492;2023-04-30T15:02:53;19.86;31.35
65470;DHT22;52067;50.710;14.492;2023-04-30T15:05:18;20.47;28.86
65470;DHT22;52067;50.710;14.492;2023-04-30T15:07:43;20.38;28.30
65470;DHT22;52067;50.710;14.492;2023-04-30T15:10:09;19.01;30.76
65470;DHT22;52067;50.710;14.492;2023-04-30T15:12:35;18.69;30.59
65470;DHT22;52067;50.710;14.492;2023-04-30T15:15:01;19.75;33.00
65470;DHT22;52067;50.710;14.492;2023-04-30T15:17:28;20.82;30.23
65470;DHT22;52067;50.710;14.492;2023-04-30T15:19:53;19.96;31.44
65470;DHT22;52067;50.710;14.492;2023-04-30T15:22:19;20.18;29.93
65470;DHT22;52067;50.710;14.492;2023-04-30T15:24:45;20.59;31.80
65470;DHT22;52067;50.710;14.492;2023-04-30T15:27:10;19.82;32.20
65470;DHT22;52067;50.710;14.492;2023-04-30T15:29:35;21.87;26.31
65470;DHT22;52067;50.710;14.492;2023-04-30T15:32:01;18.84;30.97
65470;DHT22;52067;50.710;14.492;2023-04-30T15:34:26;18.64;33.34
65470;DHT22;52067;50.710;14.492;2023-04-30T15:36:52;17.63;36.89
65470;DHT22;52067;50.710;14.492;2023-04-30T15:39:18;17.39;35.33